Terminal Aerodrome Forecast
Issued by NWS

Home | Current Version | Previous Version | Text Only | Print | Product List | Glossary On
Versions: 1 2 3 4 5 6 7 8 9 10 11 12 13 14 15
000
FTUS46 KMTR 231727
TAFSJC
TAF
KSJC 231727Z 2318/2418 VRB03KT P6SM SKC
     FM232200 31012KT P6SM SKC
     FM240400 20008KT P6SM FEW020
     FM240800 31004KT P6SM BKN015
     FM241600 36003KT P6SM FEW020=

USA.gov is the U.S. government's official web portal to all federal, state and local government web resources and services.